createdAt,value
2022-09-16T00:01:22.428Z,99511.56
2022-09-16T00:04:25.424Z,99504.13
2022-09-16T00:07:30.412Z,99499.41
2022-09-16T00:10:33.561Z,99495.84
2022-09-16T00:13:36.135Z,99498.63
2022-09-16T00:16:38.947Z,99505.94
2022-09-16T00:19:41.523Z,99503.94
2022-09-16T00:22:44.340Z,99516.19
2022-09-16T00:25:56.050Z,99517.09
2022-09-16T00:28:58.926Z,99509.19
2022-09-16T00:32:02.091Z,99524.50
2022-09-16T00:35:05.265Z,99516.09
2022-09-16T00:38:07.760Z,99521.00
2022-09-16T00:41:18.724Z,99526.81
2022-09-16T00:44:54.228Z,99529.19
2022-09-16T00:48:20.956Z,99528.84
2022-09-16T00:51:25.484Z,99529.41
2022-09-16T00:54:30.220Z,99534.63
2022-09-16T00:57:32.915Z,99532.91
2022-09-16T01:00:36.953Z,99534.41
2022-09-16T01:03:49.623Z,99530.41
2022-09-16T01:06:53.085Z,99532.91
2022-09-16T01:09:56.050Z,99541.09
2022-09-16T01:13:06.289Z,99551.78
2022-09-16T01:16:30.082Z,99547.09
2022-09-16T01:20:09.909Z,99545.53
2022-09-16T01:23:34.393Z,99547.69
2022-09-16T01:27:25.391Z,99545.22
2022-09-16T01:30:52.829Z,99539.28
2022-09-16T01:34:11.390Z,99550.41
2022-09-16T01:37:16.766Z,99556.56
2022-09-16T01:40:51.885Z,99557.47
2022-09-16T01:44:08.522Z,99557.78
2022-09-16T01:47:27.893Z,99559.37
2022-09-16T01:50:37.394Z,99549.50
2022-09-16T01:54:03.898Z,99547.88
2022-09-16T01:57:16.740Z,99543.84
2022-09-16T02:00:20.919Z,99542.38
2022-09-16T02:03:28.922Z,99536.47
2022-09-16T02:06:33.745Z,99529.81
2022-09-16T02:09:42.405Z,99526.97
2022-09-16T02:12:48.548Z,99541.56
2022-09-16T02:15:53.998Z,99544.41
2022-09-16T02:19:02.748Z,99545.44
2022-09-16T02:22:11.535Z,99551.59
2022-09-16T02:25:18.416Z,99569.50
2022-09-16T02:28:27.593Z,99560.00
2022-09-16T02:31:34.674Z,99577.34
2022-09-16T02:34:44.869Z,99575.69
2022-09-16T02:37:55.151Z,99564.63
2022-09-16T02:40:59.453Z,99560.34
2022-09-16T02:44:04.190Z,99578.69
2022-09-16T02:47:12.839Z,99580.75
2022-09-16T02:50:22.731Z,99582.81
2022-09-16T02:53:43.337Z,99592.47
2022-09-16T02:56:46.285Z,99601.50
2022-09-16T02:59:50.158Z,99597.75
2022-09-16T03:02:54.314Z,99601.91
2022-09-16T03:06:08.546Z,99609.06
2022-09-16T03:09:13.822Z,99607.38
2022-09-16T03:12:38.292Z,99604.53
2022-09-16T03:15:59.488Z,99610.28
2022-09-16T03:19:21.675Z,99620.37
2022-09-16T03:22:51.413Z,99596.16
2022-09-16T03:26:02.700Z,99596.56
2022-09-16T03:29:28.009Z,99593.88
2022-09-16T03:32:35.569Z,99590.22
2022-09-16T03:35:46.171Z,99595.56
2022-09-16T03:38:49.962Z,99593.12
2022-09-16T03:41:53.119Z,99597.47
2022-09-16T03:44:55.603Z,99613.91
2022-09-16T03:47:58.265Z,99609.19
2022-09-16T03:51:00.767Z,99611.50
2022-09-16T03:54:03.661Z,99616.66
2022-09-16T03:57:06.423Z,99622.00
2022-09-16T04:00:10.716Z,99623.44
2022-09-16T04:03:14.420Z,99625.06
2022-09-16T04:06:17.226Z,99612.16
2022-09-16T04:09:19.661Z,99619.97
2022-09-16T04:12:22.352Z,99627.59
2022-09-16T04:15:24.792Z,99630.47
2022-09-16T04:18:27.769Z,99629.66
2022-09-16T04:21:30.407Z,99627.37
2022-09-16T04:24:33.154Z,99628.19
2022-09-16T04:27:35.933Z,99637.66
2022-09-16T04:30:38.843Z,99649.59
2022-09-16T04:33:42.058Z,99651.44
2022-09-16T04:36:44.926Z,99657.63
2022-09-16T04:39:47.541Z,99648.53
2022-09-16T04:42:51.674Z,99636.19
2022-09-16T04:45:54.310Z,99634.59
2022-09-16T04:48:58.130Z,99629.88
2022-09-16T04:52:00.678Z,99634.59
2022-09-16T04:55:03.631Z,99639.75
2022-09-16T04:58:06.039Z,99630.69
2022-09-16T05:01:17.641Z,99649.34
2022-09-16T05:04:20.340Z,99644.56
2022-09-16T05:07:23.296Z,99644.41
2022-09-16T05:10:28.600Z,99646.44
2022-09-16T05:13:31.451Z,99651.84
2022-09-16T05:16:34.335Z,99647.59
2022-09-16T05:19:37.121Z,99657.63
2022-09-16T05:22:39.587Z,99656.38
2022-09-16T05:25:42.309Z,99657.81
2022-09-16T05:28:45.385Z,99660.88
2022-09-16T05:31:48.277Z,99647.66
2022-09-16T05:34:51.323Z,99655.09
2022-09-16T05:37:54.116Z,99670.78
2022-09-16T05:41:00.386Z,99679.59
2022-09-16T05:44:04.139Z,99675.06
2022-09-16T05:47:06.710Z,99653.62
2022-09-16T05:50:09.756Z,99659.81
2022-09-16T05:53:12.269Z,99666.75
2022-09-16T05:56:19.204Z,99667.81
2022-09-16T05:59:23.503Z,99670.25
2022-09-16T06:02:26.321Z,99658.72
2022-09-16T06:05:33.031Z,99658.22
2022-09-16T06:08:37.159Z,99660.31
2022-09-16T06:11:45.811Z,99659.09
2022-09-16T06:14:48.203Z,99665.66
2022-09-16T06:17:50.960Z,99663.03
2022-09-16T06:20:56.027Z,99663.47
2022-09-16T06:23:58.827Z,99663.34
2022-09-16T06:27:01.227Z,99671.03
2022-09-16T06:30:05.181Z,99671.81
2022-09-16T06:33:09.166Z,99670.56
2022-09-16T06:36:14.624Z,99674.06
2022-09-16T06:39:17.691Z,99668.03
2022-09-16T06:42:20.450Z,99649.97
2022-09-16T06:45:23.032Z,99652.97
2022-09-16T06:48:27.736Z,99662.88
2022-09-16T06:51:31.435Z,99667.38
2022-09-16T06:54:34.438Z,99656.81
2022-09-16T06:57:36.987Z,99656.94
2022-09-16T07:00:39.740Z,99660.09
2022-09-16T07:03:45.539Z,99660.19
2022-09-16T07:07:08.754Z,99657.81
2022-09-16T07:10:12.413Z,99656.91
2022-09-16T07:13:15.181Z,99661.75
2022-09-16T07:16:21.360Z,99671.75
2022-09-16T07:19:25.723Z,99676.69
2022-09-16T07:22:31.290Z,99672.28
2022-09-16T07:25:35.917Z,99676.84
2022-09-16T07:28:39.908Z,99687.81
2022-09-16T07:31:42.669Z,99695.87
2022-09-16T07:34:45.060Z,99696.00
2022-09-16T07:37:47.944Z,99695.75
2022-09-16T07:40:50.746Z,99690.50
2022-09-16T07:43:55.100Z,99694.78
2022-09-16T07:46:57.567Z,99695.53
2022-09-16T07:50:00.541Z,99710.56
2022-09-16T07:53:04.161Z,99708.69
2022-09-16T07:56:13.149Z,99712.88
2022-09-16T07:59:18.882Z,99709.19
2022-09-16T08:02:22.211Z,99716.78
2022-09-16T08:05:25.059Z,99720.88
2022-09-16T08:08:27.943Z,99727.88
2022-09-16T08:11:31.337Z,99729.72
2022-09-16T08:14:34.414Z,99723.75
2022-09-16T08:17:37.117Z,99731.97
2022-09-16T08:20:39.735Z,99727.66
2022-09-16T08:23:42.913Z,99728.06
2022-09-16T08:26:45.526Z,99724.22
2022-09-16T08:29:48.967Z,99735.53
2022-09-16T08:32:58.811Z,99727.84
2022-09-16T08:36:02.375Z,99727.28
2022-09-16T08:39:05.223Z,99722.00
2022-09-16T08:42:30.803Z,99720.34
2022-09-16T08:45:59.080Z,99727.56
2022-09-16T08:49:35.446Z,99717.94
2022-09-16T08:52:40.987Z,99720.53
2022-09-16T08:55:48.843Z,99716.03
2022-09-16T08:58:57.737Z,99720.75
2022-09-16T09:02:38.709Z,99723.28
2022-09-16T09:05:56.313Z,99729.16
2022-09-16T09:09:30.202Z,99738.62
2022-09-16T09:12:40.126Z,99738.28
2022-09-16T09:15:48.240Z,99741.47
2022-09-16T09:19:09.133Z,99731.03
2022-09-16T09:22:57.993Z,99717.47
2022-09-16T09:26:22.535Z,99720.78
2022-09-16T09:30:00.307Z,99738.06
2022-09-16T09:33:46.614Z,99717.47
2022-09-16T09:37:18.468Z,99729.91
2022-09-16T09:40:42.742Z,99730.34
2022-09-16T09:43:55.194Z,99719.31
2022-09-16T09:47:03.627Z,99731.09
2022-09-16T09:50:22.719Z,99725.28
2022-09-16T09:53:32.816Z,99732.78
2022-09-16T09:56:44.814Z,99727.63
2022-09-16T10:00:12.163Z,99724.41
2022-09-16T10:03:19.610Z,99724.06
2022-09-16T10:06:30.670Z,99719.34
2022-09-16T10:09:38.277Z,99705.50
2022-09-16T10:12:41.086Z,99698.53
2022-09-16T10:15:44.299Z,99694.25
2022-09-16T10:19:23.222Z,99708.44
2022-09-16T10:22:30.925Z,99715.12
2022-09-16T10:25:34.675Z,99710.41
2022-09-16T10:28:38.345Z,99710.38
2022-09-16T10:31:42.801Z,99697.72
2022-09-16T10:34:47.151Z,99703.13
2022-09-16T10:37:54.198Z,99702.16
2022-09-16T10:41:02.728Z,99696.59
2022-09-16T10:44:17.483Z,99696.84
2022-09-16T10:47:26.202Z,99698.28
2022-09-16T10:50:29.079Z,99702.06
2022-09-16T10:53:31.523Z,99704.37
2022-09-16T10:56:54.489Z,99704.34
2022-09-16T11:00:15.056Z,99704.34
2022-09-16T11:04:06.258Z,99703.53
2022-09-16T11:07:23.365Z,99708.50
2022-09-16T11:10:38.617Z,99702.38
2022-09-16T11:13:50.054Z,99713.56
2022-09-16T11:17:28.723Z,99710.03
2022-09-16T11:20:45.524Z,99706.00
2022-09-16T11:24:17.007Z,99699.72
2022-09-16T11:27:50.047Z,99708.22
2022-09-16T11:30:58.923Z,99707.03
2022-09-16T11:34:34.111Z,99692.56
2022-09-16T11:37:55.357Z,99688.69
2022-09-16T11:41:08.558Z,99678.53
2022-09-16T11:44:26.378Z,99689.22
2022-09-16T11:48:03.871Z,99685.12
2022-09-16T11:51:35.455Z,99676.88
2022-09-16T11:54:56.237Z,99671.94
2022-09-16T11:58:04.224Z,99661.72
2022-09-16T12:01:28.090Z,99661.28
2022-09-16T12:04:44.464Z,99658.41
2022-09-16T12:08:35.643Z,99660.34
2022-09-16T12:12:09.766Z,99656.38
2022-09-16T12:15:21.102Z,99648.06
2022-09-16T12:18:30.466Z,99642.47
2022-09-16T12:21:40.068Z,99632.63
2022-09-16T12:24:48.691Z,99645.72
2022-09-16T12:27:57.453Z,99642.84
2022-09-16T12:31:11.210Z,99633.09
2022-09-16T12:34:28.401Z,99632.19
2022-09-16T12:37:35.338Z,99627.87
2022-09-16T12:41:05.587Z,99620.84
2022-09-16T12:44:37.940Z,99620.75
2022-09-16T12:48:08.541Z,99617.12
2022-09-16T12:51:25.276Z,99611.78
2022-09-16T12:55:06.773Z,99611.34
2022-09-16T12:58:42.843Z,99606.63
2022-09-16T13:01:55.626Z,99606.69
2022-09-16T13:05:12.867Z,99608.31
2022-09-16T13:08:23.039Z,99605.09
2022-09-16T13:14:56.474Z,99598.50
2022-09-16T13:18:14.475Z,99597.78
2022-09-16T13:21:25.631Z,99591.41
2022-09-16T13:24:39.089Z,99592.41
2022-09-16T13:27:56.187Z,99591.31
2022-09-16T13:31:11.767Z,99602.06
2022-09-16T13:34:17.168Z,99594.59
2022-09-16T13:37:26.798Z,99595.41
2022-09-16T13:40:31.389Z,99595.88
2022-09-16T13:43:36.885Z,99587.56
2022-09-16T13:46:39.454Z,99582.94
2022-09-16T13:49:56.896Z,99588.72
2022-09-16T13:53:18.292Z,99579.38
2022-09-16T13:56:35.959Z,99573.13
2022-09-16T14:00:14.863Z,99564.44
2022-09-16T14:03:53.688Z,99558.56
2022-09-16T14:07:20.276Z,99561.47
2022-09-16T14:10:47.464Z,99559.94
2022-09-16T14:14:05.923Z,99556.78
2022-09-16T14:17:27.584Z,99556.72
2022-09-16T14:20:34.298Z,99550.84
2022-09-16T14:23:37.041Z,99545.06
2022-09-16T14:26:50.383Z,99550.16
2022-09-16T14:30:06.736Z,99543.31
2022-09-16T14:33:10.894Z,99543.59
2022-09-16T14:36:21.294Z,99538.03
2022-09-16T14:39:26.451Z,99550.56
2022-09-16T14:42:30.508Z,99547.91
2022-09-16T14:45:35.482Z,99548.34
2022-09-16T14:48:40.774Z,99535.87
2022-09-16T14:51:47.570Z,99534.31
2022-09-16T14:54:51.296Z,99529.50
2022-09-16T14:57:54.158Z,99525.03
2022-09-16T15:01:08.982Z,99526.53
2022-09-16T15:04:31.142Z,99518.63
2022-09-16T15:07:50.622Z,99516.34
2022-09-16T15:11:29.731Z,99517.06
2022-09-16T15:14:38.797Z,99520.97
2022-09-16T15:17:41.710Z,99522.03
2022-09-16T15:20:53.388Z,99531.84
2022-09-16T15:23:59.203Z,99538.22
2022-09-16T15:27:02.856Z,99542.44
2022-09-16T15:30:07.377Z,99541.94
2022-09-16T15:33:36.152Z,99539.62
2022-09-16T15:36:41.828Z,99542.22
2022-09-16T15:39:44.707Z,99536.97
2022-09-16T15:43:12.691Z,99529.72
2022-09-16T15:46:22.171Z,99531.50
2022-09-16T15:49:28.717Z,99540.22
2022-09-16T15:53:07.033Z,99539.62
2022-09-16T15:56:27.099Z,99548.97
2022-09-16T15:59:42.334Z,99538.81
2022-09-16T16:02:57.564Z,99535.22
2022-09-16T16:06:00.715Z,99529.59
2022-09-16T16:09:03.264Z,99523.63
2022-09-16T16:12:10.015Z,99522.84
2022-09-16T16:15:13.673Z,99525.03
2022-09-16T16:18:16.917Z,99520.03
2022-09-16T16:21:20.347Z,99526.44
2022-09-16T16:24:27.235Z,99520.50
2022-09-16T16:27:29.738Z,99529.44
2022-09-16T16:30:33.106Z,99518.13
2022-09-16T16:33:35.487Z,99516.41
2022-09-16T16:36:38.282Z,99520.94
2022-09-16T16:39:41.393Z,99522.78
2022-09-16T16:42:44.527Z,99510.53
2022-09-16T16:45:54.456Z,99499.47
2022-09-16T16:48:57.431Z,99495.63
2022-09-16T16:52:01.025Z,99496.66
2022-09-16T16:55:04.360Z,99497.34
2022-09-16T16:58:06.937Z,99500.25
2022-09-16T17:01:16.240Z,99497.81
2022-09-16T17:04:18.944Z,99494.19
2022-09-16T17:07:26.723Z,99492.75
2022-09-16T17:10:30.984Z,99486.97
2022-09-16T17:13:34.262Z,99489.50
2022-09-16T17:16:36.724Z,99485.53
2022-09-16T17:19:39.485Z,99482.50
2022-09-16T17:22:42.079Z,99470.28
2022-09-16T17:25:49.746Z,99477.50
2022-09-16T17:28:53.737Z,99476.13
2022-09-16T17:31:57.122Z,99475.00
2022-09-16T17:34:59.792Z,99481.41
2022-09-16T17:38:06.815Z,99482.91
2022-09-16T17:41:15.161Z,99489.75
2022-09-16T17:44:19.168Z,99478.59
2022-09-16T17:47:22.062Z,99482.75
2022-09-16T17:50:27.011Z,99495.69
2022-09-16T17:53:29.700Z,99510.56
2022-09-16T17:56:32.603Z,99524.19
2022-09-16T17:59:35.072Z,99516.25
2022-09-16T18:02:37.868Z,99513.22
2022-09-16T18:05:40.621Z,99513.78
2022-09-16T18:08:44.203Z,99501.22
2022-09-16T18:11:47.201Z,99497.72
2022-09-16T18:14:50.367Z,99493.41
2022-09-16T18:17:54.236Z,99500.41
2022-09-16T18:20:56.784Z,99496.22
2022-09-16T18:24:02.741Z,99490.87
2022-09-16T18:27:05.288Z,99503.81
2022-09-16T18:30:09.129Z,99519.25
2022-09-16T18:33:11.876Z,99523.50
2022-09-16T18:36:16.135Z,99516.72
2022-09-16T18:39:18.920Z,99512.56
2022-09-16T18:42:21.949Z,99507.00
2022-09-16T18:45:24.481Z,99503.03
2022-09-16T18:48:27.267Z,99505.63
2022-09-16T18:51:41.389Z,99507.72
2022-09-16T18:54:46.880Z,99489.81
2022-09-16T18:57:49.313Z,99484.91
2022-09-16T19:00:52.435Z,99490.87
2022-09-16T19:03:58.648Z,99489.44
2022-09-16T19:07:08.142Z,99494.22
2022-09-16T19:10:10.845Z,99488.72
2022-09-16T19:13:13.910Z,99470.56
2022-09-16T19:16:16.908Z,99464.12
2022-09-16T19:19:20.866Z,99469.91
2022-09-16T19:22:23.556Z,99478.56
2022-09-16T19:25:26.485Z,99489.53
2022-09-16T19:28:30.734Z,99501.03
2022-09-16T19:31:36.158Z,99515.53
2022-09-16T19:34:38.620Z,99514.03
2022-09-16T19:37:41.370Z,99520.66
2022-09-16T19:40:44.156Z,99532.41
2022-09-16T19:43:47.460Z,99523.09
2022-09-16T19:46:50.009Z,99515.91
2022-09-16T19:49:52.725Z,99513.37
2022-09-16T19:52:55.232Z,99509.53
2022-09-16T19:56:00.210Z,99501.09
2022-09-16T19:59:03.147Z,99507.34
2022-09-16T20:02:06.670Z,99511.53
2022-09-16T20:05:09.914Z,99517.03
2022-09-16T20:08:12.459Z,99507.94
2022-09-16T20:11:18.983Z,99508.34
2022-09-16T20:14:21.734Z,99512.09
2022-09-16T20:17:24.368Z,99518.72
2022-09-16T20:20:27.084Z,99513.78
2022-09-16T20:23:30.892Z,99506.84
2022-09-16T20:26:34.749Z,99512.97
2022-09-16T20:29:37.673Z,99503.38
2022-09-16T20:32:40.077Z,99505.50
2022-09-16T20:35:43.019Z,99503.72
2022-09-16T20:38:46.697Z,99501.34
2022-09-16T20:41:52.534Z,99511.53
2022-09-16T20:44:55.168Z,99526.16
2022-09-16T20:47:58.118Z,99534.16
2022-09-16T20:51:06.714Z,99523.97
2022-09-16T20:54:12.093Z,99532.16
2022-09-16T20:57:14.610Z,99527.25
2022-09-16T21:00:17.881Z,99524.53
2022-09-16T21:03:20.350Z,99542.63
2022-09-16T21:06:25.040Z,99548.44
2022-09-16T21:09:27.577Z,99545.34
2022-09-16T21:12:30.503Z,99536.09
2022-09-16T21:15:32.964Z,99545.06
2022-09-16T21:18:35.894Z,99541.72
2022-09-16T21:21:41.262Z,99538.44
2022-09-16T21:24:44.006Z,99540.78
2022-09-16T21:27:46.405Z,99545.56
2022-09-16T21:30:57.721Z,99547.44
2022-09-16T21:34:03.072Z,99549.34
2022-09-16T21:37:05.898Z,99567.44
2022-09-16T21:40:10.234Z,99573.97
2022-09-16T21:43:13.119Z,99571.56
2022-09-16T21:46:21.532Z,99560.94
2022-09-16T21:49:25.609Z,99553.78
2022-09-16T21:52:28.446Z,99552.16
2022-09-16T21:55:31.363Z,99549.94
2022-09-16T21:58:35.093Z,99551.97
2022-09-16T22:01:38.377Z,99560.03
2022-09-16T22:04:41.086Z,99553.44
2022-09-16T22:07:43.540Z,99547.75
2022-09-16T22:10:46.406Z,99562.31
2022-09-16T22:13:49.107Z,99562.94
2022-09-16T22:16:51.880Z,99576.09
2022-09-16T22:19:54.616Z,99573.59
2022-09-16T22:22:57.437Z,99581.47
2022-09-16T22:26:05.203Z,99597.66
2022-09-16T22:29:09.432Z,99600.56
2022-09-16T22:32:11.918Z,99611.25
2022-09-16T22:35:14.663Z,99608.97
2022-09-16T22:38:17.065Z,99619.25
2022-09-16T22:41:20.731Z,99620.06
2022-09-16T22:44:23.773Z,99617.63
2022-09-16T22:47:26.569Z,99626.81
2022-09-16T22:50:29.547Z,99623.34
2022-09-16T22:53:32.949Z,99621.09
2022-09-16T22:56:35.599Z,99632.97
2022-09-16T22:59:38.265Z,99635.03
2022-09-16T23:02:40.721Z,99636.88
2022-09-16T23:05:43.506Z,99622.31
2022-09-16T23:08:46.480Z,99619.66
2022-09-16T23:11:49.645Z,99609.81
2022-09-16T23:14:52.039Z,99612.50
2022-09-16T23:17:54.715Z,99626.34
2022-09-16T23:21:00.251Z,99614.94
2022-09-16T23:24:04.849Z,99609.81
2022-09-16T23:27:07.369Z,99607.16
2022-09-16T23:30:11.168Z,99595.00
2022-09-16T23:33:13.999Z,99590.28
2022-09-16T23:36:18.150Z,99597.06
2022-09-16T23:39:20.646Z,99586.19
2022-09-16T23:42:23.470Z,99582.50
2022-09-16T23:45:25.853Z,99566.91
2022-09-16T23:48:29.801Z,99569.41
2022-09-16T23:51:32.317Z,99558.75
2022-09-16T23:54:35.007Z,99546.66
2022-09-16T23:57:37.465Z,99551.37
